createdAt,value
2022-12-31T00:01:30.963Z,97.30
2022-12-31T00:03:58.189Z,97.40
2022-12-31T00:06:30.726Z,97.40
2022-12-31T00:08:59.469Z,97.40
2022-12-31T00:11:27.954Z,97.40
2022-12-31T00:13:55.251Z,97.40
2022-12-31T00:16:30.528Z,97.50
2022-12-31T00:18:59.281Z,97.50
2022-12-31T00:21:30.669Z,97.60
2022-12-31T00:23:58.232Z,97.60
2022-12-31T00:26:28.373Z,97.70
2022-12-31T00:28:56.482Z,97.70
2022-12-31T00:31:29.701Z,97.70
2022-12-31T00:33:57.064Z,97.60
2022-12-31T00:36:26.464Z,97.70
2022-12-31T00:38:54.869Z,97.70
2022-12-31T00:41:22.738Z,97.60
2022-12-31T00:43:49.789Z,97.60
2022-12-31T00:46:17.318Z,97.60
2022-12-31T00:48:44.506Z,97.60
2022-12-31T00:51:14.233Z,98.00
2022-12-31T00:53:41.097Z,97.70
2022-12-31T00:56:12.184Z,97.70
2022-12-31T00:58:39.248Z,97.70
2022-12-31T01:01:13.198Z,97.70
2022-12-31T01:03:40.127Z,97.70
2022-12-31T01:06:07.480Z,97.70
2022-12-31T01:08:34.732Z,97.70
2022-12-31T01:11:22.240Z,97.70
2022-12-31T01:13:51.214Z,97.70
2022-12-31T01:16:20.776Z,97.70
2022-12-31T01:18:48.334Z,97.70
2022-12-31T01:21:15.729Z,97.70
2022-12-31T01:23:42.778Z,97.70
2022-12-31T01:26:11.630Z,97.70
2022-12-31T01:28:38.776Z,97.70
2022-12-31T01:31:11.399Z,97.70
2022-12-31T01:33:38.556Z,97.70
2022-12-31T01:36:14.170Z,97.70
2022-12-31T01:38:41.251Z,97.70
2022-12-31T01:41:12.883Z,97.60
2022-12-31T01:43:50.073Z,97.60
2022-12-31T01:46:28.332Z,97.60
2022-12-31T01:49:00.172Z,97.60
2022-12-31T01:51:29.927Z,97.60
2022-12-31T01:53:57.487Z,97.60
2022-12-31T01:56:24.515Z,97.50
2022-12-31T01:58:53.665Z,97.50
2022-12-31T02:01:26.562Z,97.50
2022-12-31T02:03:54.441Z,97.50
2022-12-31T02:06:42.914Z,97.50
2022-12-31T02:09:11.035Z,97.50
2022-12-31T02:11:38.162Z,97.50
2022-12-31T02:14:13.310Z,97.50
2022-12-31T02:16:49.358Z,97.50
2022-12-31T02:19:15.989Z,97.50
2022-12-31T02:21:52.364Z,97.50
2022-12-31T02:24:37.091Z,97.50
2022-12-31T02:27:19.631Z,97.40
2022-12-31T02:30:06.829Z,97.40
2022-12-31T02:32:57.162Z,97.30
2022-12-31T02:35:53.954Z,97.70
2022-12-31T02:38:42.979Z,97.30
2022-12-31T02:41:36.749Z,97.30
2022-12-31T02:44:23.248Z,97.30
2022-12-31T02:46:58.859Z,97.30
2022-12-31T02:49:47.576Z,97.30
2022-12-31T02:52:40.510Z,97.20
2022-12-31T02:55:37.954Z,97.30
2022-12-31T02:58:17.016Z,97.30
2022-12-31T03:01:09.317Z,97.70
2022-12-31T03:03:38.088Z,97.30
2022-12-31T03:06:08.475Z,97.30
2022-12-31T03:08:57.687Z,97.70
2022-12-31T03:11:43.171Z,97.40
2022-12-31T03:14:09.862Z,97.80
2022-12-31T03:16:36.588Z,97.40
2022-12-31T03:19:21.910Z,97.50
2022-12-31T03:22:07.449Z,97.50
2022-12-31T03:24:52.957Z,97.50
2022-12-31T03:27:19.643Z,97.50
2022-12-31T03:29:46.339Z,97.50
2022-12-31T03:32:13.038Z,97.50
2022-12-31T03:34:39.766Z,97.50
2022-12-31T03:37:06.443Z,97.50
2022-12-31T03:39:33.175Z,97.40
2022-12-31T03:41:59.861Z,97.50
2022-12-31T03:44:26.651Z,97.50
2022-12-31T03:46:53.319Z,97.50
2022-12-31T03:49:20.079Z,97.50
2022-12-31T03:51:46.747Z,97.50
2022-12-31T03:54:13.480Z,97.50
2022-12-31T03:56:40.149Z,97.50
2022-12-31T03:59:06.911Z,97.90
2022-12-31T04:01:33.808Z,97.50
2022-12-31T04:04:00.578Z,97.50
2022-12-31T04:06:27.302Z,97.50
2022-12-31T04:08:53.971Z,97.40
2022-12-31T04:11:21.159Z,97.40
2022-12-31T04:13:48.057Z,97.40
2022-12-31T04:16:14.830Z,97.40
2022-12-31T04:18:41.532Z,97.40
2022-12-31T04:21:08.242Z,97.40
2022-12-31T04:23:36.031Z,97.40
2022-12-31T04:26:02.786Z,97.40
2022-12-31T04:28:29.453Z,97.40
2022-12-31T04:30:56.158Z,97.40
2022-12-31T04:33:22.892Z,97.40
2022-12-31T04:35:49.572Z,97.50
2022-12-31T04:38:16.322Z,97.50
2022-12-31T04:41:04.118Z,97.50
2022-12-31T04:43:30.896Z,97.50
2022-12-31T04:45:57.712Z,97.50
2022-12-31T04:48:24.476Z,97.50
2022-12-31T04:50:51.490Z,97.50
2022-12-31T04:53:18.212Z,97.50
2022-12-31T04:55:46.136Z,97.60
2022-12-31T04:58:12.911Z,97.50
2022-12-31T05:00:39.605Z,97.50
2022-12-31T05:03:06.311Z,97.60
2022-12-31T05:05:33.029Z,97.60
2022-12-31T05:07:59.707Z,97.60
2022-12-31T05:10:26.540Z,97.60
2022-12-31T05:12:53.194Z,97.60
2022-12-31T05:15:19.919Z,97.70
2022-12-31T05:17:46.575Z,97.70
2022-12-31T05:20:19.210Z,97.80
2022-12-31T05:22:45.885Z,97.90
2022-12-31T05:25:12.634Z,97.90
2022-12-31T05:27:39.397Z,97.90
2022-12-31T05:30:07.206Z,98.40
2022-12-31T05:32:34.701Z,98.10
2022-12-31T05:35:01.720Z,98.20
2022-12-31T05:37:29.576Z,98.30
2022-12-31T05:39:56.681Z,98.30
2022-12-31T05:42:23.970Z,98.40
2022-12-31T05:44:50.860Z,98.40
2022-12-31T05:47:18.025Z,98.40
2022-12-31T05:49:44.720Z,98.40
2022-12-31T05:52:11.413Z,98.50
2022-12-31T05:54:38.093Z,98.50
2022-12-31T05:57:05.174Z,98.60
2022-12-31T05:59:32.252Z,98.60
2022-12-31T06:01:59.357Z,98.60
2022-12-31T06:04:26.705Z,98.60
2022-12-31T06:06:53.436Z,98.60
2022-12-31T06:09:20.463Z,98.60
2022-12-31T06:11:47.625Z,98.60
2022-12-31T06:14:14.926Z,98.70
2022-12-31T06:16:42.502Z,98.60
2022-12-31T06:19:09.756Z,98.60
2022-12-31T06:21:36.456Z,98.70
2022-12-31T06:24:03.300Z,98.70
2022-12-31T06:26:29.985Z,98.70
2022-12-31T06:28:56.735Z,98.70
2022-12-31T06:31:23.496Z,98.70
2022-12-31T06:33:50.207Z,98.70
2022-12-31T06:36:16.972Z,98.70
2022-12-31T06:38:44.261Z,98.70
2022-12-31T06:41:13.148Z,98.70
2022-12-31T06:43:41.315Z,98.80
2022-12-31T06:46:10.553Z,98.90
2022-12-31T06:48:38.041Z,98.90
2022-12-31T06:51:16.734Z,99.00
2022-12-31T06:53:45.223Z,99.10
2022-12-31T06:56:21.619Z,99.10
2022-12-31T06:58:49.187Z,99.20
2022-12-31T07:01:51.259Z,99.30
2022-12-31T07:04:46.108Z,99.40
2022-12-31T07:07:42.987Z,99.50
2022-12-31T07:10:29.239Z,99.70
2022-12-31T07:12:59.641Z,99.80
2022-12-31T07:16:10.584Z,99.90
2022-12-31T07:18:40.315Z,99.90
2022-12-31T07:21:13.613Z,99.90
2022-12-31T07:23:41.955Z,99.90
2022-12-31T07:26:35.408Z,99.90
2022-12-31T07:29:15.568Z,99.90
2022-12-31T07:32:00.606Z,99.90
2022-12-31T07:34:51.458Z,99.90
2022-12-31T07:37:39.083Z,99.90
2022-12-31T07:40:18.750Z,99.90
2022-12-31T07:43:14.329Z,99.90
2022-12-31T07:46:02.381Z,99.90
2022-12-31T07:48:29.732Z,99.90
2022-12-31T07:50:57.436Z,99.90
2022-12-31T07:53:25.163Z,99.90
2022-12-31T07:56:03.779Z,99.90
2022-12-31T07:58:47.495Z,99.90
2022-12-31T08:01:19.927Z,99.90
2022-12-31T08:04:20.456Z,99.90
2022-12-31T08:06:50.072Z,99.90
2022-12-31T08:09:51.854Z,99.90
2022-12-31T08:12:20.129Z,99.90
2022-12-31T08:14:48.595Z,99.90
2022-12-31T08:17:17.168Z,99.90
2022-12-31T08:19:45.777Z,99.90
2022-12-31T08:22:28.437Z,99.80
2022-12-31T08:25:05.319Z,99.70
2022-12-31T08:27:43.937Z,99.60
2022-12-31T08:30:15.151Z,99.50
2022-12-31T08:33:11.510Z,99.50
2022-12-31T08:36:15.836Z,99.40
2022-12-31T08:39:01.218Z,99.30
2022-12-31T08:41:50.813Z,99.40
2022-12-31T08:44:52.077Z,99.30
2022-12-31T08:47:46.718Z,99.30
2022-12-31T08:50:15.803Z,99.30
2022-12-31T08:52:42.763Z,99.30
2022-12-31T08:55:16.700Z,99.30
2022-12-31T08:58:04.162Z,99.30
2022-12-31T09:00:31.696Z,99.30
2022-12-31T09:03:26.075Z,99.40
2022-12-31T09:06:02.365Z,99.40
2022-12-31T09:08:50.882Z,99.40
2022-12-31T09:11:33.823Z,99.40
2022-12-31T09:14:50.146Z,99.50
2022-12-31T09:17:40.672Z,99.50
2022-12-31T09:20:43.288Z,99.50
2022-12-31T09:23:12.574Z,99.60
2022-12-31T09:26:00.928Z,99.60
2022-12-31T09:28:39.524Z,99.60
2022-12-31T09:31:17.268Z,99.60
2022-12-31T09:34:03.271Z,99.60
2022-12-31T09:36:41.319Z,99.60
2022-12-31T09:39:35.483Z,99.60
2022-12-31T09:42:20.939Z,99.90
2022-12-31T09:45:09.519Z,99.90
2022-12-31T09:48:19.733Z,99.50
2022-12-31T09:50:50.516Z,99.50
2022-12-31T09:53:17.227Z,99.50
2022-12-31T09:56:14.920Z,99.90
2022-12-31T09:58:45.033Z,99.50
2022-12-31T10:01:36.254Z,99.50
2022-12-31T10:04:36.851Z,99.50
2022-12-31T10:07:15.746Z,99.40
2022-12-31T10:10:01.464Z,99.50
2022-12-31T10:12:36.337Z,99.50
2022-12-31T10:15:40.283Z,99.50
2022-12-31T10:18:37.361Z,99.40
2022-12-31T10:21:22.561Z,99.40
2022-12-31T10:24:04.719Z,99.40
2022-12-31T10:26:53.431Z,99.30
2022-12-31T10:29:38.898Z,99.30
2022-12-31T10:32:14.563Z,99.30
2022-12-31T10:35:15.025Z,99.20
2022-12-31T10:38:05.105Z,99.20
2022-12-31T10:40:53.192Z,99.10
2022-12-31T10:43:54.408Z,99.20
2022-12-31T10:46:36.151Z,99.10
2022-12-31T10:49:41.523Z,99.00
2022-12-31T10:52:32.228Z,99.00
2022-12-31T10:55:24.847Z,98.80
2022-12-31T10:58:29.185Z,98.80
2022-12-31T11:01:11.093Z,98.70
2022-12-31T11:04:14.993Z,98.70
2022-12-31T11:07:00.242Z,98.50
2022-12-31T11:09:51.691Z,98.60
2022-12-31T11:12:40.252Z,98.60
2022-12-31T11:15:22.032Z,98.60
2022-12-31T11:18:30.315Z,98.80
2022-12-31T11:21:50.218Z,98.60
2022-12-31T11:24:40.711Z,98.60
2022-12-31T11:27:17.067Z,98.70
2022-12-31T11:30:02.171Z,98.80
2022-12-31T11:32:53.160Z,98.80
2022-12-31T11:35:41.327Z,98.90
2022-12-31T11:38:29.124Z,98.90
2022-12-31T11:41:14.529Z,98.90
2022-12-31T11:43:55.683Z,98.90
2022-12-31T11:46:42.628Z,98.80
2022-12-31T11:49:46.595Z,98.70
2022-12-31T11:52:46.997Z,98.60
2022-12-31T11:55:34.961Z,98.40
2022-12-31T11:58:29.082Z,98.20
2022-12-31T12:01:04.839Z,98.20
2022-12-31T12:03:32.242Z,98.20
2022-12-31T12:05:59.759Z,98.10
2022-12-31T12:08:30.279Z,98.00
2022-12-31T12:11:05.331Z,98.00
2022-12-31T12:13:32.115Z,98.00
2022-12-31T12:16:05.806Z,97.90
2022-12-31T12:19:16.545Z,97.70
2022-12-31T12:21:48.518Z,97.60
2022-12-31T12:24:51.979Z,97.60
2022-12-31T12:27:24.621Z,97.50
2022-12-31T12:29:51.391Z,97.50
2022-12-31T12:32:22.249Z,97.40
2022-12-31T12:34:50.040Z,97.40
2022-12-31T12:37:35.407Z,97.40
2022-12-31T12:40:17.921Z,97.30
2022-12-31T12:42:52.541Z,97.30
2022-12-31T12:45:22.162Z,97.20
2022-12-31T12:47:55.398Z,97.10
2022-12-31T12:50:36.048Z,97.00
2022-12-31T12:53:11.818Z,97.10
2022-12-31T12:56:06.320Z,97.10
2022-12-31T12:58:48.773Z,97.00
2022-12-31T13:01:24.037Z,97.00
2022-12-31T13:04:35.378Z,96.90
2022-12-31T13:07:14.422Z,96.80
2022-12-31T13:10:16.622Z,96.80
2022-12-31T13:16:04.364Z,96.70
2022-12-31T13:18:54.873Z,96.70
2022-12-31T13:21:35.667Z,96.70
2022-12-31T13:24:19.345Z,96.70
2022-12-31T13:27:12.547Z,96.70
2022-12-31T13:29:42.395Z,96.70
2022-12-31T13:32:17.035Z,96.70
2022-12-31T13:34:46.124Z,96.70
2022-12-31T13:37:27.583Z,96.70
2022-12-31T13:40:07.426Z,96.70
2022-12-31T13:42:45.744Z,96.70
2022-12-31T13:45:24.733Z,96.70
2022-12-31T13:48:00.147Z,96.70
2022-12-31T13:50:55.019Z,96.70
2022-12-31T13:53:26.599Z,96.70
2022-12-31T13:56:09.319Z,96.70
2022-12-31T13:58:44.666Z,96.70
2022-12-31T14:01:33.716Z,96.70
2022-12-31T14:04:14.941Z,96.60
2022-12-31T14:06:53.219Z,96.60
2022-12-31T14:09:23.805Z,96.60
2022-12-31T14:12:18.314Z,96.50
2022-12-31T14:14:53.788Z,96.40
2022-12-31T14:17:58.675Z,96.30
2022-12-31T14:20:34.246Z,96.10
2022-12-31T14:23:30.121Z,96.10
2022-12-31T14:26:31.428Z,95.90
2022-12-31T14:29:25.231Z,95.80
2022-12-31T14:32:07.084Z,95.50
2022-12-31T14:34:41.179Z,95.40
2022-12-31T14:37:31.877Z,95.70
2022-12-31T14:40:09.586Z,95.20
2022-12-31T14:43:07.829Z,95.00
2022-12-31T14:45:53.057Z,94.90
2022-12-31T14:48:36.479Z,94.70
2022-12-31T14:51:04.289Z,94.70
2022-12-31T14:53:31.453Z,94.70
2022-12-31T14:56:00.677Z,94.60
2022-12-31T14:58:35.019Z,94.60
2022-12-31T15:01:26.420Z,94.60
2022-12-31T15:03:58.360Z,94.60
2022-12-31T15:06:54.421Z,94.60
2022-12-31T15:09:44.366Z,94.50
2022-12-31T15:12:23.142Z,94.30
2022-12-31T15:14:58.922Z,94.50
2022-12-31T15:18:07.453Z,94.50
2022-12-31T15:20:51.364Z,94.30
2022-12-31T15:23:23.966Z,94.30
2022-12-31T15:25:59.187Z,94.10
2022-12-31T15:28:38.085Z,94.20
2022-12-31T15:31:16.061Z,93.70
2022-12-31T15:33:56.279Z,93.90
2022-12-31T15:36:26.483Z,93.40
2022-12-31T15:39:12.694Z,93.70
2022-12-31T15:42:36.163Z,93.40
2022-12-31T15:44:55.001Z,93.40
2022-12-31T15:47:37.138Z,93.30
2022-12-31T15:50:13.539Z,92.90
2022-12-31T15:53:02.795Z,92.90
2022-12-31T15:55:41.667Z,92.90
2022-12-31T15:58:25.107Z,92.60
2022-12-31T16:01:13.859Z,92.40
2022-12-31T16:04:00.778Z,92.40
2022-12-31T16:06:33.670Z,92.10
2022-12-31T16:09:00.632Z,92.20
2022-12-31T16:11:30.435Z,92.10
2022-12-31T16:13:58.925Z,92.00
2022-12-31T16:16:33.242Z,91.80
2022-12-31T16:19:01.804Z,91.90
2022-12-31T16:21:32.923Z,91.70
2022-12-31T16:24:07.522Z,91.50
2022-12-31T16:26:49.670Z,91.40
2022-12-31T16:29:19.064Z,90.90
2022-12-31T16:31:47.203Z,91.20
2022-12-31T16:34:18.484Z,91.20
2022-12-31T16:37:06.638Z,91.10
2022-12-31T16:39:38.632Z,90.70
2022-12-31T16:42:14.247Z,90.70
2022-12-31T16:44:41.608Z,90.70
2022-12-31T16:47:15.173Z,90.60
2022-12-31T16:49:42.822Z,90.60
2022-12-31T16:52:22.499Z,90.50
2022-12-31T16:54:50.137Z,90.20
2022-12-31T16:57:23.831Z,90.30
2022-12-31T16:59:55.973Z,90.40
2022-12-31T17:02:30.509Z,90.10
2022-12-31T17:04:57.285Z,90.10
2022-12-31T17:07:39.915Z,90.00
2022-12-31T17:10:06.637Z,89.70
2022-12-31T17:12:53.089Z,89.80
2022-12-31T17:15:38.280Z,89.50
2022-12-31T17:18:05.973Z,89.40
2022-12-31T17:20:33.967Z,89.10
2022-12-31T17:23:06.037Z,89.00
2022-12-31T17:25:36.032Z,89.00
2022-12-31T17:28:18.394Z,88.70
2022-12-31T17:30:45.179Z,88.30
2022-12-31T17:33:11.835Z,88.20
2022-12-31T17:35:43.306Z,88.00
2022-12-31T17:38:22.353Z,87.70
2022-12-31T17:41:13.839Z,87.00
2022-12-31T17:43:41.250Z,87.30
2022-12-31T17:46:16.495Z,87.20
2022-12-31T17:48:46.096Z,87.20
2022-12-31T17:51:12.835Z,87.40
2022-12-31T17:53:39.508Z,87.20
2022-12-31T17:56:14.544Z,87.20
2022-12-31T17:58:52.462Z,87.20
2022-12-31T18:01:21.898Z,86.90
2022-12-31T18:03:48.803Z,86.80
2022-12-31T18:06:17.228Z,86.60
2022-12-31T18:08:44.141Z,86.70
2022-12-31T18:11:16.543Z,86.50
2022-12-31T18:13:43.550Z,86.50
2022-12-31T18:16:10.393Z,86.30
2022-12-31T18:18:39.956Z,86.20
2022-12-31T18:21:13.314Z,85.90
2022-12-31T18:23:48.460Z,86.00
2022-12-31T18:26:20.622Z,85.80
2022-12-31T18:28:48.513Z,85.70
2022-12-31T18:31:21.574Z,85.60
2022-12-31T18:33:49.348Z,85.40
2022-12-31T18:36:17.603Z,85.70
2022-12-31T18:38:44.410Z,85.20
2022-12-31T18:41:19.307Z,85.60
2022-12-31T18:43:46.181Z,83.80
2022-12-31T18:46:16.004Z,84.20
2022-12-31T18:48:42.864Z,84.50
2022-12-31T18:51:18.951Z,83.50
2022-12-31T18:53:46.080Z,83.50
2022-12-31T18:56:15.852Z,83.30
2022-12-31T18:58:42.957Z,83.10
2022-12-31T19:01:25.501Z,83.00
2022-12-31T19:03:52.550Z,82.20
2022-12-31T19:06:19.329Z,81.90
2022-12-31T19:08:46.081Z,81.90
2022-12-31T19:11:16.450Z,81.70
2022-12-31T19:13:43.283Z,80.60
2022-12-31T19:16:10.503Z,80.30
2022-12-31T19:18:37.463Z,81.20
2022-12-31T19:21:04.855Z,80.80
2022-12-31T19:23:32.308Z,80.40
2022-12-31T19:25:59.215Z,80.40
2022-12-31T19:28:27.622Z,80.90
2022-12-31T19:30:54.936Z,79.80
2022-12-31T19:33:22.065Z,79.20
2022-12-31T19:35:49.129Z,79.30
2022-12-31T19:38:25.008Z,79.20
2022-12-31T19:40:53.256Z,79.10
2022-12-31T19:43:21.757Z,78.50
2022-12-31T19:45:50.180Z,78.40
2022-12-31T19:48:19.459Z,78.20
2022-12-31T19:50:49.249Z,78.10
2022-12-31T19:53:19.135Z,78.10
2022-12-31T19:55:46.274Z,77.50
2022-12-31T19:58:21.857Z,77.80
2022-12-31T20:00:55.671Z,77.60
2022-12-31T20:03:25.577Z,78.00
2022-12-31T20:06:01.873Z,77.70
2022-12-31T20:08:28.564Z,77.50
2022-12-31T20:10:58.751Z,77.40
2022-12-31T20:13:27.001Z,77.50
2022-12-31T20:15:54.554Z,77.40
2022-12-31T20:18:22.939Z,77.20
2022-12-31T20:20:55.523Z,77.00
2022-12-31T20:23:22.876Z,76.80
2022-12-31T20:26:01.823Z,76.40
2022-12-31T20:28:28.940Z,76.20
2022-12-31T20:30:55.863Z,76.30
2022-12-31T20:33:22.718Z,76.10
2022-12-31T20:35:49.836Z,76.30
2022-12-31T20:38:16.628Z,75.80
2022-12-31T20:40:46.858Z,75.60
2022-12-31T20:43:14.413Z,75.20
2022-12-31T20:45:41.707Z,75.40
2022-12-31T20:48:08.544Z,75.20
2022-12-31T20:50:35.290Z,75.10
2022-12-31T20:53:03.081Z,75.40
2022-12-31T20:55:30.852Z,75.30
2022-12-31T20:57:57.632Z,75.20
2022-12-31T21:00:24.425Z,74.80
2022-12-31T21:03:00.368Z,75.60
2022-12-31T21:05:33.604Z,74.80
2022-12-31T21:08:00.440Z,74.70
2022-12-31T21:10:27.184Z,74.70
2022-12-31T21:12:53.892Z,74.60
2022-12-31T21:15:21.618Z,74.30
2022-12-31T21:17:48.352Z,74.30
2022-12-31T21:20:15.153Z,74.10
2022-12-31T21:22:41.964Z,74.40
2022-12-31T21:25:10.540Z,74.40
2022-12-31T21:27:37.263Z,74.30
2022-12-31T21:30:20.365Z,74.20
2022-12-31T21:32:47.579Z,74.10
2022-12-31T21:35:41.650Z,74.30
2022-12-31T21:38:06.634Z,74.50
2022-12-31T21:40:33.895Z,74.20
2022-12-31T21:43:00.682Z,74.20
2022-12-31T21:45:27.499Z,74.30
2022-12-31T21:48:12.800Z,74.00
2022-12-31T21:50:39.520Z,74.00
2022-12-31T21:53:06.227Z,73.70
2022-12-31T21:55:51.658Z,73.70
2022-12-31T21:58:27.254Z,73.50
2022-12-31T22:01:14.498Z,73.50
2022-12-31T22:03:41.520Z,73.40
2022-12-31T22:06:21.890Z,72.90
2022-12-31T22:08:49.693Z,72.80
2022-12-31T22:11:18.908Z,72.50
2022-12-31T22:13:46.143Z,73.30
2022-12-31T22:16:14.096Z,72.90
2022-12-31T22:18:42.952Z,72.80
2022-12-31T22:21:19.959Z,72.70
2022-12-31T22:23:49.616Z,72.60
2022-12-31T22:26:18.599Z,72.80
2022-12-31T22:28:46.061Z,72.40
2022-12-31T22:31:15.230Z,72.20
2022-12-31T22:33:43.225Z,72.50
2022-12-31T22:36:20.676Z,72.20
2022-12-31T22:38:48.379Z,71.80
2022-12-31T22:41:20.394Z,71.80
2022-12-31T22:43:58.462Z,71.50
2022-12-31T22:46:29.437Z,71.50
2022-12-31T22:48:58.605Z,71.80
2022-12-31T22:51:29.206Z,71.70
2022-12-31T22:54:12.285Z,71.60
2022-12-31T22:56:39.181Z,71.40
2022-12-31T22:59:05.933Z,71.60
2022-12-31T23:01:34.379Z,71.70
2022-12-31T23:04:01.456Z,71.00
2022-12-31T23:06:29.118Z,71.20
2022-12-31T23:09:14.731Z,71.30
2022-12-31T23:11:43.315Z,71.50
2022-12-31T23:14:34.352Z,71.40
2022-12-31T23:17:30.940Z,71.20
2022-12-31T23:20:17.908Z,71.60
2022-12-31T23:23:03.781Z,71.40
2022-12-31T23:25:52.617Z,71.00
2022-12-31T23:28:25.284Z,70.30
2022-12-31T23:30:52.743Z,70.70
2022-12-31T23:33:28.328Z,70.70
2022-12-31T23:36:06.729Z,70.30
2022-12-31T23:38:33.487Z,70.20
2022-12-31T23:41:00.166Z,70.70
2022-12-31T23:43:26.919Z,70.40
2022-12-31T23:45:53.757Z,71.40
2022-12-31T23:48:20.564Z,70.60
2022-12-31T23:50:53.398Z,70.30
2022-12-31T23:53:21.379Z,70.50
2022-12-31T23:55:48.129Z,70.30
2022-12-31T23:58:15.333Z,70.60
